Aérodrome :
LOGIN :

S'inscrire | Disclaimer

   EN    FR    IT 

 










Légende :    VFR   VFR Marginal   IFR   IFR Intensif   IFR Très Intensif
Visi : 
Plafond : 
>= 8 km
>= 3000ft
5 à 8 km
1000 à 3000 ft
1500m à 5 km
500 à 1000 ft
800 à 1500m
200 à 500 ft
< 800m
< 200 ft
Symboles :   Orages  Brouillard  Fortes neiges  Fortes précipitations  Vent > 20 kt
SIGMETs :   Divers  Orages  Givrage  Turbulence  Onde Orograph.  Cendres Volcan.






- Altitude de l'aérodrome : -13 ft
- Code IATA : LEY


EHLE - Lelystad

DERNIER METAR :
  • 301655Z AUTO 30012KT 260V330 9999 BKN023 OVC027 19/14 Q1011 NOSIG

METARs EXPIRÉS :
  • 301625Z AUTO 31012KT 270V340 9999 OVC021 20/15 Q1011 NOSIG
  • 301555Z AUTO 33011KT 290V360 9999 FEW023 21/16 Q1011 NOSIG
  • 301525Z AUTO 33010KT 9999 SCT025 21/15 Q1011 NOSIG
  • 301455Z AUTO 33010KT 290V010 9999 FEW025 22/16 Q1011 NOSIG
  • 301425Z AUTO 35010KT 320V020 9999 FEW025 21/16 Q1011 NOSIG

TAF TAF EHLE
Valide du 30 à 12h jusqu'au 01 à 18h UTC


301119Z 3012/0118 30013KT CAVOK
BECMG 3016/3019 7000 -RA BKN040
TEMPO 3018/3022 4000 RA SHRA SCT015 BKN025 FEW060CB
BECMG 3022/0101 21008KT 9999 NSW SCT025
PROB30
TEMPO 3022/0105 7000 -RADZ BKN012
BECMG 0109/0112 24014KT
PROB30
TEMPO 0111/0115 7000 -SHRA FEW025CB



MET'MAP, la Météo Aéronautique d'un coup d'oeil ! - Copyright ORBIFLY Décembre 2007 - Disclaimer

ORBIFLY MET'MAP TEAM :

Programmation & Développement : Alexandra Zaïnal
Sur une idée originale de : Baudouin d'Aumeries
Soutien technique & logistique : Manuel Goepfert
Assistance : Marc-Olivier Méhu




SOURCES & CREDITS :

   NOAA